sensor_id;sensor_type;location;lat;lon;timestamp;pressure;altitude;pressure_sealevel;temperature;humidity
76864;BME280;65834;52.364;9.754;2023-02-28T00:00:33;102432.59;;;0.88;70.80
76864;BME280;65834;52.364;9.754;2023-02-28T00:03:03;102435.31;;;0.86;70.82
76864;BME280;65834;52.364;9.754;2023-02-28T00:05:33;102443.78;;;0.94;70.65
76864;BME280;65834;52.364;9.754;2023-02-28T00:08:05;102437.97;;;1.03;70.05
76864;BME280;65834;52.364;9.754;2023-02-28T00:10:34;102432.88;;;0.99;70.01
76864;BME280;65834;52.364;9.754;2023-02-28T00:13:06;102434.53;;;1.01;70.07
76864;BME280;65834;52.364;9.754;2023-02-28T00:15:35;102436.41;;;0.99;70.26
76864;BME280;65834;52.364;9.754;2023-02-28T00:18:05;102429.38;;;0.98;70.54
76864;BME280;65834;52.364;9.754;2023-02-28T00:20:34;102433.72;;;0.99;70.58
76864;BME280;65834;52.364;9.754;2023-02-28T00:23:06;102435.78;;;0.94;70.42
76864;BME280;65834;52.364;9.754;2023-02-28T00:25:36;102432.69;;;1.02;70.25
76864;BME280;65834;52.364;9.754;2023-02-28T00:28:05;102427.16;;;1.06;70.04
76864;BME280;65834;52.364;9.754;2023-02-28T00:30:34;102427.91;;;1.08;70.06
76864;BME280;65834;52.364;9.754;2023-02-28T00:33:04;102431.59;;;1.06;70.27
76864;BME280;65834;52.364;9.754;2023-02-28T00:35:34;102424.66;;;1.03;70.10
76864;BME280;65834;52.364;9.754;2023-02-28T00:38:06;102431.94;;;1.00;70.23
76864;BME280;65834;52.364;9.754;2023-02-28T00:40:35;102424.66;;;1.03;70.27
76864;BME280;65834;52.364;9.754;2023-02-28T00:43:05;102426.22;;;1.07;70.30
76864;BME280;65834;52.364;9.754;2023-02-28T00:45:34;102423.94;;;1.00;70.34
76864;BME280;65834;52.364;9.754;2023-02-28T00:48:04;102420.75;;;0.93;70.79
76864;BME280;65834;52.364;9.754;2023-02-28T00:50:33;102424.28;;;0.94;70.84
76864;BME280;65834;52.364;9.754;2023-02-28T00:53:05;102427.97;;;0.91;70.88
76864;BME280;65834;52.364;9.754;2023-02-28T00:55:35;102419.34;;;0.86;71.23
76864;BME280;65834;52.364;9.754;2023-02-28T00:58:05;102429.31;;;0.83;71.42
76864;BME280;65834;52.364;9.754;2023-02-28T01:00:34;102432.97;;;0.80;71.52
76864;BME280;65834;52.364;9.754;2023-02-28T01:03:04;102431.28;;;0.79;71.35
76864;BME280;65834;52.364;9.754;2023-02-28T01:05:33;102434.41;;;0.70;71.16
76864;BME280;65834;52.364;9.754;2023-02-28T01:08:05;102435.06;;;0.58;71.93
76864;BME280;65834;52.364;9.754;2023-02-28T01:10:35;102432.56;;;0.55;72.06
76864;BME280;65834;52.364;9.754;2023-02-28T01:13:06;102439.81;;;0.51;72.01
76864;BME280;65834;52.364;9.754;2023-02-28T01:15:45;102431.28;;;0.45;72.45
76864;BME280;65834;52.364;9.754;2023-02-28T01:18:15;102433.41;;;0.38;73.24
76864;BME280;65834;52.364;9.754;2023-02-28T01:20:46;102429.25;;;0.33;73.52
76864;BME280;65834;52.364;9.754;2023-02-28T01:23:18;102430.75;;;0.21;73.65
76864;BME280;65834;52.364;9.754;2023-02-28T01:25:49;102429.16;;;0.17;73.77
76864;BME280;65834;52.364;9.754;2023-02-28T01:28:19;102439.09;;;0.14;74.03
76864;BME280;65834;52.364;9.754;2023-02-28T01:30:49;102432.28;;;0.08;74.03
76864;BME280;65834;52.364;9.754;2023-02-28T01:33:19;102431.56;;;0.05;74.27
76864;BME280;65834;52.364;9.754;2023-02-28T01:35:57;102437.97;;;0.00;74.54
76864;BME280;65834;52.364;9.754;2023-02-28T01:38:31;102440.56;;;0.02;74.33
76864;BME280;65834;52.364;9.754;2023-02-28T01:41:01;102437.97;;;0.00;74.33
76864;BME280;65834;52.364;9.754;2023-02-28T01:43:53;102433.59;;;-0.01;74.57
76864;BME280;65834;52.364;9.754;2023-02-28T01:46:23;102430.38;;;-0.07;74.82
76864;BME280;65834;52.364;9.754;2023-02-28T01:48:58;102433.34;;;-0.13;74.97
76864;BME280;65834;52.364;9.754;2023-02-28T01:51:33;102425.66;;;-0.19;75.13
76864;BME280;65834;52.364;9.754;2023-02-28T01:54:11;102427.66;;;-0.24;75.59
76864;BME280;65834;52.364;9.754;2023-02-28T01:56:45;102435.88;;;-0.29;75.45
76864;BME280;65834;52.364;9.754;2023-02-28T01:59:20;102427.94;;;-0.30;75.77
76864;BME280;65834;52.364;9.754;2023-02-28T02:01:51;102429.88;;;-0.34;75.82
76864;BME280;65834;52.364;9.754;2023-02-28T02:04:21;102429.13;;;-0.36;75.94
76864;BME280;65834;52.364;9.754;2023-02-28T02:06:52;102420.41;;;-0.39;76.07
76864;BME280;65834;52.364;9.754;2023-02-28T02:09:24;102425.00;;;-0.43;76.28
76864;BME280;65834;52.364;9.754;2023-02-28T02:11:55;102420.00;;;-0.49;76.77
76864;BME280;65834;52.364;9.754;2023-02-28T02:14:39;102421.97;;;-0.52;76.88
76864;BME280;65834;52.364;9.754;2023-02-28T02:17:20;102421.38;;;-0.59;76.55
76864;BME280;65834;52.364;9.754;2023-02-28T02:23:23;102413.69;;;-0.65;76.75
76864;BME280;65834;52.364;9.754;2023-02-28T02:26:07;102411.75;;;-0.62;76.99
76864;BME280;65834;52.364;9.754;2023-02-28T02:28:57;102411.97;;;-0.66;76.96
76864;BME280;65834;52.364;9.754;2023-02-28T02:32:01;102406.72;;;-0.68;77.49
76864;BME280;65834;52.364;9.754;2023-02-28T02:34:43;102411.97;;;-0.66;77.82
76864;BME280;65834;52.364;9.754;2023-02-28T02:37:25;102405.88;;;-0.68;77.72
76864;BME280;65834;52.364;9.754;2023-02-28T02:40:04;102408.88;;;-0.76;77.77
76864;BME280;65834;52.364;9.754;2023-02-28T02:42:43;102405.56;;;-0.81;77.63
76864;BME280;65834;52.364;9.754;2023-02-28T02:45:17;102410.03;;;-0.81;77.83
76864;BME280;65834;52.364;9.754;2023-02-28T02:47:49;102410.06;;;-0.83;77.92
76864;BME280;65834;52.364;9.754;2023-02-28T02:50:25;102412.03;;;-0.86;77.84
76864;BME280;65834;52.364;9.754;2023-02-28T02:52:59;102406.88;;;-0.89;77.90
76864;BME280;65834;52.364;9.754;2023-02-28T02:55:34;102411.09;;;-0.85;77.66
76864;BME280;65834;52.364;9.754;2023-02-28T02:58:10;102413.16;;;-0.92;77.67
76864;BME280;65834;52.364;9.754;2023-02-28T03:00:44;102413.09;;;-0.90;77.65
76864;BME280;65834;52.364;9.754;2023-02-28T03:03:18;102417.63;;;-0.92;77.87
76864;BME280;65834;52.364;9.754;2023-02-28T03:05:59;102409.56;;;-0.91;77.95
76864;BME280;65834;52.364;9.754;2023-02-28T03:08:34;102413.16;;;-0.92;78.19
76864;BME280;65834;52.364;9.754;2023-02-28T03:11:05;102405.28;;;-0.93;78.06
76864;BME280;65834;52.364;9.754;2023-02-28T03:14:01;102405.28;;;-0.93;77.96
76864;BME280;65834;52.364;9.754;2023-02-28T03:16:52;102412.31;;;-0.92;77.91
76864;BME280;65834;52.364;9.754;2023-02-28T03:19:35;102412.53;;;-0.97;77.99
76864;BME280;65834;52.364;9.754;2023-02-28T03:22:24;102402.91;;;-0.99;77.96
76864;BME280;65834;52.364;9.754;2023-02-28T03:25:03;102405.63;;;-1.01;77.55
76864;BME280;65834;52.364;9.754;2023-02-28T03:27:40;102408.41;;;-1.04;77.32
76864;BME280;65834;52.364;9.754;2023-02-28T03:30:17;102404.97;;;-1.06;77.45
76864;BME280;65834;52.364;9.754;2023-02-28T03:32:53;102406.84;;;-1.08;77.40
76864;BME280;65834;52.364;9.754;2023-02-28T03:35:28;102398.59;;;-1.02;77.59
76864;BME280;65834;52.364;9.754;2023-02-28T03:38:07;102397.72;;;-1.02;77.48
76864;BME280;65834;52.364;9.754;2023-02-28T03:40:46;102400.38;;;-1.02;77.73
76864;BME280;65834;52.364;9.754;2023-02-28T03:43:21;102396.91;;;-1.04;77.88
76864;BME280;65834;52.364;9.754;2023-02-28T03:45:54;102404.09;;;-1.06;77.74
76864;BME280;65834;52.364;9.754;2023-02-28T03:48:29;102405.03;;;-1.08;77.71
76864;BME280;65834;52.364;9.754;2023-02-28T03:51:01;102400.66;;;-1.08;77.70
76864;BME280;65834;52.364;9.754;2023-02-28T03:53:36;102399.84;;;-1.11;77.72
76864;BME280;65834;52.364;9.754;2023-02-28T03:56:11;102397.19;;;-1.11;77.75
76864;BME280;65834;52.364;9.754;2023-02-28T03:58:47;102399.03;;;-1.11;77.95
76864;BME280;65834;52.364;9.754;2023-02-28T04:01:22;102397.44;;;-1.15;78.03
76864;BME280;65834;52.364;9.754;2023-02-28T04:03:53;102400.94;;;-1.15;77.86
76864;BME280;65834;52.364;9.754;2023-02-28T04:06:24;102399.28;;;-1.17;77.82
76864;BME280;65834;52.364;9.754;2023-02-28T04:08:56;102397.69;;;-1.21;78.05
76864;BME280;65834;52.364;9.754;2023-02-28T04:11:27;102397.88;;;-1.26;77.76
76864;BME280;65834;52.364;9.754;2023-02-28T04:13:59;102401.41;;;-1.25;78.17
76864;BME280;65834;52.364;9.754;2023-02-28T04:16:29;102406.94;;;-1.30;78.22
76864;BME280;65834;52.364;9.754;2023-02-28T04:19:02;102411.44;;;-1.32;78.05
76864;BME280;65834;52.364;9.754;2023-02-28T04:21:34;102414.16;;;-1.33;78.15
76864;BME280;65834;52.364;9.754;2023-02-28T04:24:07;102405.25;;;-1.32;78.01
76864;BME280;65834;52.364;9.754;2023-02-28T04:26:42;102414.16;;;-1.33;77.66
76864;BME280;65834;52.364;9.754;2023-02-28T04:29:14;102409.59;;;-1.30;77.56
76864;BME280;65834;52.364;9.754;2023-02-28T04:31:47;102410.50;;;-1.31;77.67
76864;BME280;65834;52.364;9.754;2023-02-28T04:34:16;102414.22;;;-1.35;77.55
76864;BME280;65834;52.364;9.754;2023-02-28T04:36:46;102413.47;;;-1.38;76.93
76864;BME280;65834;52.364;9.754;2023-02-28T04:39:38;102409.19;;;-1.41;76.69
76864;BME280;65834;52.364;9.754;2023-02-28T04:42:08;102416.22;;;-1.40;76.88
76864;BME280;65834;52.364;9.754;2023-02-28T04:44:38;102419.00;;;-1.43;76.64
76864;BME280;65834;52.364;9.754;2023-02-28T04:47:07;102419.06;;;-1.44;76.22
76864;BME280;65834;52.364;9.754;2023-02-28T04:49:37;102418.34;;;-1.48;76.31
76864;BME280;65834;52.364;9.754;2023-02-28T04:52:07;102412.31;;;-1.51;76.23
76864;BME280;65834;52.364;9.754;2023-02-28T04:54:39;102420.34;;;-1.53;75.94
76864;BME280;65834;52.364;9.754;2023-02-28T04:57:09;102421.34;;;-1.55;76.18
76864;BME280;65834;52.364;9.754;2023-02-28T04:59:38;102416.88;;;-1.55;76.04
76864;BME280;65834;52.364;9.754;2023-02-28T05:02:09;102422.25;;;-1.56;76.04
76864;BME280;65834;52.364;9.754;2023-02-28T05:04:39;102420.84;;;-1.65;76.24
76864;BME280;65834;52.364;9.754;2023-02-28T05:07:08;102422.47;;;-1.61;75.96
76864;BME280;65834;52.364;9.754;2023-02-28T05:09:40;102425.28;;;-1.66;76.22
76864;BME280;65834;52.364;9.754;2023-02-28T05:12:09;102422.72;;;-1.67;75.89
76864;BME280;65834;52.364;9.754;2023-02-28T05:14:39;102422.84;;;-1.70;76.00
76864;BME280;65834;52.364;9.754;2023-02-28T05:17:08;102423.78;;;-1.71;75.85
76864;BME280;65834;52.364;9.754;2023-02-28T05:19:38;102433.59;;;-1.73;75.94
76864;BME280;65834;52.364;9.754;2023-02-28T05:22:13;102428.53;;;-1.79;75.43
76864;BME280;65834;52.364;9.754;2023-02-28T05:24:46;102421.97;;;-1.71;75.66
76864;BME280;65834;52.364;9.754;2023-02-28T05:27:15;102428.19;;;-1.72;75.85
76864;BME280;65834;52.364;9.754;2023-02-28T05:29:45;102431.72;;;-1.71;75.90
76864;BME280;65834;52.364;9.754;2023-02-28T05:32:14;102434.47;;;-1.73;76.03
76864;BME280;65834;52.364;9.754;2023-02-28T05:34:44;102438.75;;;-1.70;76.00
76864;BME280;65834;52.364;9.754;2023-02-28T05:37:14;102447.38;;;-1.65;76.04
76864;BME280;65834;52.364;9.754;2023-02-28T05:39:46;102444.00;;;-1.69;76.70
76864;BME280;65834;52.364;9.754;2023-02-28T05:42:15;102442.72;;;-1.80;77.40
76864;BME280;65834;52.364;9.754;2023-02-28T05:44:45;102451.72;;;-1.84;77.83
76864;BME280;65834;52.364;9.754;2023-02-28T05:47:15;102457.22;;;-1.89;77.90
76864;BME280;65834;52.364;9.754;2023-02-28T05:49:44;102454.56;;;-1.89;77.54
76864;BME280;65834;52.364;9.754;2023-02-28T05:52:14;102453.03;;;-1.94;77.87
76864;BME280;65834;52.364;9.754;2023-02-28T05:54:47;102453.03;;;-1.94;77.78
76864;BME280;65834;52.364;9.754;2023-02-28T05:57:17;102455.06;;;-2.01;78.15
76864;BME280;65834;52.364;9.754;2023-02-28T05:59:50;102445.34;;;-2.00;78.21
76864;BME280;65834;52.364;9.754;2023-02-28T06:02:19;102456.84;;;-2.01;78.29
76864;BME280;65834;52.364;9.754;2023-02-28T06:04:49;102456.78;;;-2.00;78.32
76864;BME280;65834;52.364;9.754;2023-02-28T06:07:19;102455.75;;;-1.96;78.40
76864;BME280;65834;52.364;9.754;2023-02-28T06:09:51;102450.56;;;-1.99;78.65
76864;BME280;65834;52.364;9.754;2023-02-28T06:12:21;102458.34;;;-1.94;78.68
76864;BME280;65834;52.364;9.754;2023-02-28T06:14:50;102457.41;;;-1.93;78.77
76864;BME280;65834;52.364;9.754;2023-02-28T06:17:19;102459.31;;;-1.97;79.01
76864;BME280;65834;52.364;9.754;2023-02-28T06:19:49;102462.81;;;-1.96;79.39
76864;BME280;65834;52.364;9.754;2023-02-28T06:22:18;102466.06;;;-1.88;78.87
76864;BME280;65834;52.364;9.754;2023-02-28T06:24:50;102462.44;;;-1.87;79.04
76864;BME280;65834;52.364;9.754;2023-02-28T06:27:21;102459.88;;;-1.89;78.96
76864;BME280;65834;52.364;9.754;2023-02-28T06:29:53;102466.91;;;-1.88;79.04
76864;BME280;65834;52.364;9.754;2023-02-28T06:33:22;63511.69;;;-142.11;100.00
76864;BME280;65834;52.364;9.754;2023-02-28T06:36:51;63511.69;;;-142.11;100.00
76864;BME280;65834;52.364;9.754;2023-02-28T06:40:22;63511.69;;;-142.11;100.00
76864;BME280;65834;52.364;9.754;2023-02-28T06:43:50;63511.69;;;-142.11;100.00
76864;BME280;65834;52.364;9.754;2023-02-28T06:47:18;63511.69;;;-142.11;100.00
76864;BME280;65834;52.364;9.754;2023-02-28T06:50:46;63511.69;;;-142.11;100.00
76864;BME280;65834;52.364;9.754;2023-02-28T06:54:14;63511.69;;;-142.11;100.00
76864;BME280;65834;52.364;9.754;2023-02-28T06:57:45;63511.69;;;-142.11;100.00
76864;BME280;65834;52.364;9.754;2023-02-28T07:01:15;63511.69;;;-142.11;100.00
76864;BME280;65834;52.364;9.754;2023-02-28T07:04:44;63511.69;;;-142.11;100.00
76864;BME280;65834;52.364;9.754;2023-02-28T07:08:13;63511.69;;;-142.11;100.00
76864;BME280;65834;52.364;9.754;2023-02-28T07:11:41;63511.69;;;-142.11;100.00
76864;BME280;65834;52.364;9.754;2023-02-28T07:15:12;63511.69;;;-142.11;100.00
76864;BME280;65834;52.364;9.754;2023-02-28T07:18:40;63511.69;;;-142.11;100.00
76864;BME280;65834;52.364;9.754;2023-02-28T07:22:09;63511.69;;;-142.11;100.00
76864;BME280;65834;52.364;9.754;2023-02-28T07:24:41;102514.56;;;-0.25;74.04
76864;BME280;65834;52.364;9.754;2023-02-28T07:27:10;102509.44;;;-0.29;73.91
76864;BME280;65834;52.364;9.754;2023-02-28T07:29:54;102511.94;;;-0.26;73.56
76864;BME280;65834;52.364;9.754;2023-02-28T07:32:23;102512.25;;;-0.14;73.32
76864;BME280;65834;52.364;9.754;2023-02-28T07:34:53;102509.72;;;-0.17;72.65
76864;BME280;65834;52.364;9.754;2023-02-28T07:37:22;102507.69;;;-0.12;71.71
76864;BME280;65834;52.364;9.754;2023-02-28T07:39:52;102512.38;;;0.02;71.43
76864;BME280;65834;52.364;9.754;2023-02-28T07:42:21;102507.69;;;0.07;71.14
76864;BME280;65834;52.364;9.754;2023-02-28T07:44:53;102512.78;;;0.12;70.73
76864;BME280;65834;52.364;9.754;2023-02-28T07:47:23;102513.22;;;0.21;69.43
76864;BME280;65834;52.364;9.754;2023-02-28T07:49:52;102512.50;;;0.18;69.55
76864;BME280;65834;52.364;9.754;2023-02-28T07:52:22;102512.91;;;0.27;69.71
76864;BME280;65834;52.364;9.754;2023-02-28T07:54:53;102517.13;;;0.31;69.69
76864;BME280;65834;52.364;9.754;2023-02-28T07:57:23;102513.81;;;0.45;69.47
76864;BME280;65834;52.364;9.754;2023-02-28T07:59:55;102505.41;;;0.52;68.85
76864;BME280;65834;52.364;9.754;2023-02-28T08:02:25;102508.41;;;0.64;68.17
76864;BME280;65834;52.364;9.754;2023-02-28T08:04:55;102504.50;;;0.71;68.09
76864;BME280;65834;52.364;9.754;2023-02-28T08:07:24;102500.66;;;0.76;67.74
76864;BME280;65834;52.364;9.754;2023-02-28T08:09:54;102505.44;;;0.70;67.68
76864;BME280;65834;52.364;9.754;2023-02-28T08:12:23;102493.63;;;0.75;67.09
76864;BME280;65834;52.364;9.754;2023-02-28T08:14:55;102502.38;;;0.94;67.09
76864;BME280;65834;52.364;9.754;2023-02-28T08:17:24;102500.97;;;1.04;66.14
76864;BME280;65834;52.364;9.754;2023-02-28T08:19:54;102498.97;;;1.08;65.84
76864;BME280;65834;52.364;9.754;2023-02-28T08:22:23;102505.66;;;1.17;65.93
76864;BME280;65834;52.364;9.754;2023-02-28T08:24:53;102507.72;;;1.27;65.36
76864;BME280;65834;52.364;9.754;2023-02-28T08:27:25;102501.03;;;1.36;64.92
76864;BME280;65834;52.364;9.754;2023-02-28T08:29:58;102505.03;;;1.44;64.92
76864;BME280;65834;52.364;9.754;2023-02-28T08:32:27;102512.00;;;1.47;64.37
76864;BME280;65834;52.364;9.754;2023-02-28T08:34:57;102512.53;;;1.53;63.69
76864;BME280;65834;52.364;9.754;2023-02-28T08:37:26;102517.53;;;1.59;63.71
76864;BME280;65834;52.364;9.754;2023-02-28T08:39:57;102520.63;;;1.68;63.93
76864;BME280;65834;52.364;9.754;2023-02-28T08:42:27;102511.09;;;1.79;63.85
76864;BME280;65834;52.364;9.754;2023-02-28T08:45:02;102517.72;;;1.88;62.85
76864;BME280;65834;52.364;9.754;2023-02-28T08:47:31;102525.91;;;2.00;62.20
76864;BME280;65834;52.364;9.754;2023-02-28T08:50:01;102518.34;;;2.08;61.21
76864;BME280;65834;52.364;9.754;2023-02-28T08:52:30;102519.28;;;2.07;61.34
76864;BME280;65834;52.364;9.754;2023-02-28T08:55:00;102525.22;;;2.12;61.51
76864;BME280;65834;52.364;9.754;2023-02-28T08:57:29;102520.84;;;2.11;61.76
76864;BME280;65834;52.364;9.754;2023-02-28T09:00:02;102525.66;;;2.21;61.36
76864;BME280;65834;52.364;9.754;2023-02-28T09:02:32;102525.50;;;2.24;60.72
76864;BME280;65834;52.364;9.754;2023-02-28T09:05:01;102526.88;;;2.31;60.81
76864;BME280;65834;52.364;9.754;2023-02-28T09:07:30;102522.38;;;2.31;61.04
76864;BME280;65834;52.364;9.754;2023-02-28T09:10:00;102527.00;;;2.43;60.27
76864;BME280;65834;52.364;9.754;2023-02-28T09:12:34;102525.13;;;2.45;61.06
76864;BME280;65834;52.364;9.754;2023-02-28T09:15:08;102528.19;;;2.53;60.22
76864;BME280;65834;52.364;9.754;2023-02-28T09:17:37;102522.59;;;2.58;59.85
76864;BME280;65834;52.364;9.754;2023-02-28T09:20:09;102522.13;;;2.65;59.32
76864;BME280;65834;52.364;9.754;2023-02-28T09:22:39;102525.09;;;2.61;59.70
76864;BME280;65834;52.364;9.754;2023-02-28T09:25:08;102526.44;;;2.68;59.73
76864;BME280;65834;52.364;9.754;2023-02-28T09:27:38;102527.56;;;2.80;59.21
76864;BME280;65834;52.364;9.754;2023-02-28T09:30:12;102528.38;;;2.80;59.34
76864;BME280;65834;52.364;9.754;2023-02-28T09:32:42;102532.59;;;2.84;59.15
76864;BME280;65834;52.364;9.754;2023-02-28T09:35:18;102528.81;;;2.88;58.91
76864;BME280;65834;52.364;9.754;2023-02-28T09:40:24;102520.78;;;2.88;58.97
76864;BME280;65834;52.364;9.754;2023-02-28T09:42:55;102525.28;;;2.88;59.52
76864;BME280;65834;52.364;9.754;2023-02-28T09:45:31;102521.84;;;2.86;59.61
76864;BME280;65834;52.364;9.754;2023-02-28T09:48:04;102527.31;;;2.98;58.62
76864;BME280;65834;52.364;9.754;2023-02-28T09:50:39;102530.56;;;3.03;57.91
76864;BME280;65834;52.364;9.754;2023-02-28T09:53:18;102519.88;;;3.03;57.72
76864;BME280;65834;52.364;9.754;2023-02-28T09:55:52;102526.28;;;3.01;58.44
76864;BME280;65834;52.364;9.754;2023-02-28T09:58:28;102521.13;;;3.12;58.52
76864;BME280;65834;52.364;9.754;2023-02-28T10:01:08;102523.16;;;3.22;57.78
76864;BME280;65834;52.364;9.754;2023-02-28T10:03:42;102517.44;;;3.28;56.01
76864;BME280;65834;52.364;9.754;2023-02-28T10:06:15;102520.69;;;3.34;55.76
76864;BME280;65834;52.364;9.754;2023-02-28T10:08:51;102518.00;;;3.48;55.48
76864;BME280;65834;52.364;9.754;2023-02-28T10:11:22;102529.78;;;3.59;55.78
76864;BME280;65834;52.364;9.754;2023-02-28T10:13:56;102520.19;;;3.69;55.70
76864;BME280;65834;52.364;9.754;2023-02-28T10:16:35;102527.59;;;3.66;53.04
76864;BME280;65834;52.364;9.754;2023-02-28T10:19:11;102515.34;;;3.62;53.75
76864;BME280;65834;52.364;9.754;2023-02-28T10:21:47;102520.00;;;3.72;54.25
76864;BME280;65834;52.364;9.754;2023-02-28T10:24:26;102516.19;;;3.91;53.80
76864;BME280;65834;52.364;9.754;2023-02-28T10:27:01;102523.38;;;4.17;53.74
76864;BME280;65834;52.364;9.754;2023-02-28T10:29:33;102522.03;;;4.24;52.21
76864;BME280;65834;52.364;9.754;2023-02-28T10:32:05;102521.13;;;4.37;51.65
76864;BME280;65834;52.364;9.754;2023-02-28T10:34:35;102523.84;;;4.50;50.57
76864;BME280;65834;52.364;9.754;2023-02-28T10:37:05;102514.13;;;4.62;50.96
76864;BME280;65834;52.364;9.754;2023-02-28T10:39:38;102517.22;;;4.95;50.12
76864;BME280;65834;52.364;9.754;2023-02-28T10:42:23;102508.75;;;5.26;48.31
76864;BME280;65834;52.364;9.754;2023-02-28T10:45:10;102513.38;;;5.62;48.63
76864;BME280;65834;52.364;9.754;2023-02-28T10:47:51;102519.78;;;5.85;47.48
76864;BME280;65834;52.364;9.754;2023-02-28T10:50:32;102514.84;;;5.79;46.36
76864;BME280;65834;52.364;9.754;2023-02-28T10:53:10;102517.75;;;5.88;46.29
76864;BME280;65834;52.364;9.754;2023-02-28T10:55:43;102520.88;;;5.95;43.83
76864;BME280;65834;52.364;9.754;2023-02-28T10:58:20;102527.84;;;6.34;44.45
76864;BME280;65834;52.364;9.754;2023-02-28T11:00:51;102519.19;;;6.65;42.76
76864;BME280;65834;52.364;9.754;2023-02-28T11:03:30;102508.97;;;6.70;42.27
76864;BME280;65834;52.364;9.754;2023-02-28T11:06:06;102519.72;;;6.46;42.21
76864;BME280;65834;52.364;9.754;2023-02-28T11:08:44;102513.59;;;6.92;41.87
76864;BME280;65834;52.364;9.754;2023-02-28T11:11:16;102499.59;;;7.22;41.65
76864;BME280;65834;52.364;9.754;2023-02-28T11:13:48;102503.72;;;7.15;39.88
76864;BME280;65834;52.364;9.754;2023-02-28T11:16:19;102495.03;;;7.11;39.62
76864;BME280;65834;52.364;9.754;2023-02-28T11:18:54;102500.69;;;7.19;39.80
76864;BME280;65834;52.364;9.754;2023-02-28T11:21:27;102490.53;;;7.23;39.51
76864;BME280;65834;52.364;9.754;2023-02-28T11:24:02;102497.16;;;6.84;38.74
76864;BME280;65834;52.364;9.754;2023-02-28T11:26:41;102505.47;;;6.81;40.06
76864;BME280;65834;52.364;9.754;2023-02-28T11:29:18;102502.03;;;6.79;39.43
76864;BME280;65834;52.364;9.754;2023-02-28T11:32:05;102503.06;;;6.89;39.83
76864;BME280;65834;52.364;9.754;2023-02-28T11:34:43;102495.72;;;6.91;40.08
76864;BME280;65834;52.364;9.754;2023-02-28T11:37:15;102489.88;;;7.08;40.04
76864;BME280;65834;52.364;9.754;2023-02-28T11:39:46;102504.72;;;6.79;40.74
76864;BME280;65834;52.364;9.754;2023-02-28T11:42:31;102500.44;;;6.76;41.23
76864;BME280;65834;52.364;9.754;2023-02-28T11:45:15;102491.53;;;6.52;42.45
76864;BME280;65834;52.364;9.754;2023-02-28T11:47:49;102484.44;;;6.51;42.68
76864;BME280;65834;52.364;9.754;2023-02-28T11:50:37;102486.00;;;6.42;42.75
76864;BME280;65834;52.364;9.754;2023-02-28T11:53:16;102485.78;;;6.45;43.16
76864;BME280;65834;52.364;9.754;2023-02-28T11:55:58;102481.31;;;6.33;42.68
76864;BME280;65834;52.364;9.754;2023-02-28T11:58:42;102484.88;;;7.03;43.55
76864;BME280;65834;52.364;9.754;2023-02-28T12:01:25;102479.72;;;7.00;41.88
76864;BME280;65834;52.364;9.754;2023-02-28T12:04:15;102483.09;;;7.37;42.61
76864;BME280;65834;52.364;9.754;2023-02-28T12:06:53;102475.88;;;7.38;41.64
76864;BME280;65834;52.364;9.754;2023-02-28T12:09:34;102472.91;;;7.30;41.84
76864;BME280;65834;52.364;9.754;2023-02-28T12:14:57;102459.25;;;7.44;nan
76864;BME280;65834;52.364;9.754;2023-02-28T12:17:41;102453.59;;;8.66;nan
76864;BME280;65834;52.364;9.754;2023-02-28T12:20:22;102459.50;;;9.52;nan
76864;BME280;65834;52.364;9.754;2023-02-28T12:23:06;102459.50;;;10.51;nan
76864;BME280;65834;52.364;9.754;2023-02-28T12:25:54;102459.31;;;13.69;nan
76864;BME280;65834;52.364;9.754;2023-02-28T12:28:31;102452.75;;;14.37;nan
76864;BME280;65834;52.364;9.754;2023-02-28T12:31:04;102443.22;;;15.22;nan
76864;BME280;65834;52.364;9.754;2023-02-28T12:33:39;102450.13;;;14.28;nan
76864;BME280;65834;52.364;9.754;2023-02-28T12:36:14;102452.78;;;14.03;nan
76864;BME280;65834;52.364;9.754;2023-02-28T12:38:53;102456.63;;;12.99;nan
76864;BME280;65834;52.364;9.754;2023-02-28T12:41:29;102450.63;;;11.90;nan
76864;BME280;65834;52.364;9.754;2023-02-28T12:44:05;102450.38;;;12.64;nan
76864;BME280;65834;52.364;9.754;2023-02-28T12:46:41;102436.44;;;14.94;nan
76864;BME280;65834;52.364;9.754;2023-02-28T12:49:15;102442.06;;;13.26;nan
76864;BME280;65834;52.364;9.754;2023-02-28T12:51:47;102440.44;;;11.28;nan
76864;BME280;65834;52.364;9.754;2023-02-28T12:54:25;102435.88;;;11.28;nan
76864;BME280;65834;52.364;9.754;2023-02-28T12:57:02;102434.28;;;10.51;nan
76864;BME280;65834;52.364;9.754;2023-02-28T12:59:38;102428.78;;;16.07;nan
76864;BME280;65834;52.364;9.754;2023-02-28T13:02:26;102421.63;;;19.48;nan
76864;BME280;65834;52.364;9.754;2023-02-28T13:05:23;102427.84;;;24.35;nan
76864;BME280;65834;52.364;9.754;2023-02-28T13:08:12;102422.16;;;25.13;nan
76864;BME280;65834;52.364;9.754;2023-02-28T13:10:49;102426.56;;;26.35;nan
76864;BME280;65834;52.364;9.754;2023-02-28T13:13:22;102424.56;;;26.19;nan
76864;BME280;65834;52.364;9.754;2023-02-28T13:16:03;102407.47;;;25.24;nan
76864;BME280;65834;52.364;9.754;2023-02-28T13:18:36;102416.97;;;26.03;nan
76864;BME280;65834;52.364;9.754;2023-02-28T13:21:08;102405.47;;;25.82;nan
76864;BME280;65834;52.364;9.754;2023-02-28T13:23:55;102408.94;;;26.58;nan
76864;BME280;65834;52.364;9.754;2023-02-28T13:29:31;102405.25;;;28.17;nan
76864;BME280;65834;52.364;9.754;2023-02-28T13:32:31;102411.22;;;26.77;nan
76864;BME280;65834;52.364;9.754;2023-02-28T13:38:23;102405.28;;;25.26;nan
76864;BME280;65834;52.364;9.754;2023-02-28T13:40:53;102409.81;;;27.63;nan
76864;BME280;65834;52.364;9.754;2023-02-28T13:43:59;102403.88;;;27.55;nan
76864;BME280;65834;52.364;9.754;2023-02-28T13:46:35;102400.66;;;26.46;nan
76864;BME280;65834;52.364;9.754;2023-02-28T13:49:29;102394.75;;;28.78;nan
76864;BME280;65834;52.364;9.754;2023-02-28T13:52:09;102395.78;;;27.75;nan
76864;BME280;65834;52.364;9.754;2023-02-28T13:54:56;102392.66;;;28.63;nan
76864;BME280;65834;52.364;9.754;2023-02-28T13:57:37;102384.66;;;19.51;nan
76864;BME280;65834;52.364;9.754;2023-02-28T14:00:21;102377.00;;;13.58;nan